Boonville, CA (95415)

9:59 AM PST on December 28, 2014 (GMT -0800)
Anderson Valley | Change Station
CLOSE
Current Station
Personal Weather Station
Location: Boonville, CA
Elevation: 410 ft
Nearby Weather Stations

Elev 410 ft 39.01 °N, 123.36 °W | Updated 13 minutes ago

Partly Cloudy
Partly Cloudy
47.9 °F
Feels Like 48 °F
N
0.0
Wind Variable Wind from ESE
Gusts 0.0 mph

Today
High -- | Low -- °F
--% Chance of Precip.
Yesterday
High -- | Low -- °F
Precip. -- in
7:31 AM 4:58 PM
Waxing Crescent, 50% visible
Pressure 30.35 in
Visibility 9.0 miles
Clouds Scattered Clouds 200 ft
Windchill 48 °F
Dew Point 43 °F
Humidity 86%
Rainfall 0.00 in
Snow Depth Not available.
UV 1 out of 12
Pollen 3.50 out of 12
Air Quality Not available.
Flu Activity Not available.
SPECI KUKI 281724Z AUTO 00000KT 9SM SCT002 04/03 A3035 RMK AO2 T00440033

More Conditions Fewer Conditions

Pressure 30.35 in
Visibility 9.0 miles
Clouds Scattered Clouds 200 ft
Windchill 48 °F
Dew Point 43 °F
Humidity 86%
Rainfall 0.00 in
Snow Depth Not available.
UV 1 out of 12
Pollen 3.50 out of 12
Air Quality Not available.
Flu Activity Not available.
SPECI KUKI 281724Z AUTO 00000KT 9SM SCT002 04/03 A3035 RMK AO2 T00440033

More Conditions Fewer Conditions

10-Day Weather Forecast

Almanac

Astronomy

Dec. 28, 2014 Rise Set
Actual Time
Civil Twilight
Nautical Twilight
Astronomical Twilight
Moon
Length of Visible Light
Length of Day
Tomorrow will be .
, % of the Moon is Illuminated

Today's Extremes

State Highs State Lows

Community

WunderPhotos

Upload Photos

1,781,367 photos uploaded!

WunderBlogs® & News

Nearby

Air Quality

  Air Quality AQ Index Pollutant
Not available.

Snow Depth

Station Depth Elevation

Earthquake Activity

City Distance Mag. Time & Date
Minimum magnitude displayed is 2.5.

Coastal Water Temperatures

Place Temperature

Nearby Weather Stations